Xuyong, Sichuan

7:47 PM CST on May 24, 2015 (GMT +0800)
Lantian|Luzhou Airport, 51 | | Change Station
CLOSE
Current Station
Airport
Location: Lantian|Luzhou Airport, 51,
Elevation: 787 ft
Nearby Weather Stations

Elev 787 ft 28.85 °N, 105.39 °E | Updated 125 days ago

Mostly Cloudy
Mostly Cloudy
78 °F
Feels Like 78 °F
N
2
Wind Variable Wind from SE
Gusts mph

Today
High -- | Low -- °F
--% Chance of Precip.
Yesterday
High -- | Low -- °F
Precip. -- in
6:04 AM 7:46 PM
Waxing Crescent, 38% visible
Pressure 30.30 in
Visibility 2.8 miles
Clouds Few 2600 ft
Overcast 4000 ft
Dew Point 63 °F
Humidity 61%
Rainfall 0.00 in
Snow Depth Not available.
UV 0 out of 12
Pollen Not available.
Air Quality Not available.
Flu Activity Not available.
METAR ZULZ 182200Z 00000MPS 4500 BR FEW026 OVC040 09/08 Q1026 NOSIG

More Conditions Fewer Conditions

Pressure 30.30 in
Visibility 2.8 miles
Clouds Few 2600 ft
Overcast 4000 ft
Dew Point 63 °F
Humidity 61%
Rainfall 0.00 in
Snow Depth Not available.
UV 0 out of 12
Pollen Not available.
Air Quality Not available.
Flu Activity Not available.
METAR ZULZ 182200Z 00000MPS 4500 BR FEW026 OVC040 09/08 Q1026 NOSIG

More Conditions Fewer Conditions

10-Day Weather Forecast

Almanac

Astronomy

May. 24, 2015 Rise Set
Actual Time
Civil Twilight
Nautical Twilight
Astronomical Twilight
Moon
Length of Visible Light
Length of Day
Tomorrow will be .
, % of the Moon is Illuminated

Today's Extremes

Country Highs Country Lows

Community

WunderPhotos

Upload Photos

1,823,719 photos uploaded!

WunderBlogs® & News

Nearby

Air Quality

  Air Quality AQ Index Pollutant
Not available.

Snow Depth

Station Depth Elevation

Earthquake Activity

City Distance Mag. Time & Date
Minimum magnitude displayed is 2.5.

Coastal Water Temperatures

Place Temperature

Stations

Nearby Weather Stations

Station Location Temp. Windchill Dew Point Humidity Wind Precip. Elev Updated Type